sensor_id;sensor_type;location;lat;lon;timestamp;temperature;humidity
1594;DHT22;790;47.000;16.084;2023-09-12T00:01:32;16.80;99.90
1594;DHT22;790;47.000;16.084;2023-09-12T00:03:59;16.70;99.90
1594;DHT22;790;47.000;16.084;2023-09-12T00:06:26;16.70;99.90
1594;DHT22;790;47.000;16.084;2023-09-12T00:08:53;16.60;99.90
1594;DHT22;790;47.000;16.084;2023-09-12T00:11:21;16.70;99.90
1594;DHT22;790;47.000;16.084;2023-09-12T00:13:51;16.60;99.90
1594;DHT22;790;47.000;16.084;2023-09-12T00:16:18;16.60;99.90
1594;DHT22;790;47.000;16.084;2023-09-12T00:18:47;16.60;99.90
1594;DHT22;790;47.000;16.084;2023-09-12T00:21:14;16.50;99.90
1594;DHT22;790;47.000;16.084;2023-09-12T00:23:41;16.50;99.90
1594;DHT22;790;47.000;16.084;2023-09-12T00:26:08;16.50;99.90
1594;DHT22;790;47.000;16.084;2023-09-12T00:28:35;16.50;99.90
1594;DHT22;790;47.000;16.084;2023-09-12T00:31:04;16.50;99.90
1594;DHT22;790;47.000;16.084;2023-09-12T00:33:31;16.50;99.90
1594;DHT22;790;47.000;16.084;2023-09-12T00:36:00;16.40;99.90
1594;DHT22;790;47.000;16.084;2023-09-12T00:38:27;16.40;99.90
1594;DHT22;790;47.000;16.084;2023-09-12T00:40:54;16.50;99.90
1594;DHT22;790;47.000;16.084;2023-09-12T00:43:21;16.50;99.90
1594;DHT22;790;47.000;16.084;2023-09-12T00:45:49;16.40;99.90
1594;DHT22;790;47.000;16.084;2023-09-12T00:48:17;16.50;99.90
1594;DHT22;790;47.000;16.084;2023-09-12T00:50:45;16.50;99.90
1594;DHT22;790;47.000;16.084;2023-09-12T00:53:14;16.40;99.90
1594;DHT22;790;47.000;16.084;2023-09-12T00:55:45;16.40;99.90
1594;DHT22;790;47.000;16.084;2023-09-12T00:58:13;16.40;99.90
1594;DHT22;790;47.000;16.084;2023-09-12T01:00:41;16.40;99.90
1594;DHT22;790;47.000;16.084;2023-09-12T01:03:08;16.40;99.90
1594;DHT22;790;47.000;16.084;2023-09-12T01:05:36;16.30;99.90
1594;DHT22;790;47.000;16.084;2023-09-12T01:08:03;16.30;99.90
1594;DHT22;790;47.000;16.084;2023-09-12T01:10:32;16.30;99.90
1594;DHT22;790;47.000;16.084;2023-09-12T01:12:59;16.30;99.90
1594;DHT22;790;47.000;16.084;2023-09-12T01:15:26;16.30;99.90
1594;DHT22;790;47.000;16.084;2023-09-12T01:17:53;16.30;99.90
1594;DHT22;790;47.000;16.084;2023-09-12T01:20:25;16.20;99.90
1594;DHT22;790;47.000;16.084;2023-09-12T01:28:48;16.20;99.90
1594;DHT22;790;47.000;16.084;2023-09-12T01:31:17;16.20;99.90
1594;DHT22;790;47.000;16.084;2023-09-12T01:33:44;16.10;99.90
1594;DHT22;790;47.000;16.084;2023-09-12T01:36:11;16.10;99.90
1594;DHT22;790;47.000;16.084;2023-09-12T01:38:38;16.10;99.90
1594;DHT22;790;47.000;16.084;2023-09-12T01:41:06;16.10;99.90
1594;DHT22;790;47.000;16.084;2023-09-12T01:43:35;16.10;99.90
1594;DHT22;790;47.000;16.084;2023-09-12T01:46:06;16.10;99.90
1594;DHT22;790;47.000;16.084;2023-09-12T01:48:36;16.10;99.90
1594;DHT22;790;47.000;16.084;2023-09-12T01:51:04;16.10;99.90
1594;DHT22;790;47.000;16.084;2023-09-12T01:53:33;16.00;99.90
1594;DHT22;790;47.000;16.084;2023-09-12T01:56:02;16.00;99.90
1594;DHT22;790;47.000;16.084;2023-09-12T01:58:29;16.00;99.90
1594;DHT22;790;47.000;16.084;2023-09-12T02:00:57;16.00;99.90
1594;DHT22;790;47.000;16.084;2023-09-12T02:03:26;16.00;99.90
1594;DHT22;790;47.000;16.084;2023-09-12T02:05:53;16.00;99.90
1594;DHT22;790;47.000;16.084;2023-09-12T02:08:20;16.00;99.90
1594;DHT22;790;47.000;16.084;2023-09-12T02:10:47;16.00;99.90
1594;DHT22;790;47.000;16.084;2023-09-12T02:13:14;15.90;99.90
1594;DHT22;790;47.000;16.084;2023-09-12T02:15:41;15.90;99.90
1594;DHT22;790;47.000;16.084;2023-09-12T02:18:09;15.90;99.90
1594;DHT22;790;47.000;16.084;2023-09-12T02:20:40;15.80;99.90
1594;DHT22;790;47.000;16.084;2023-09-12T02:23:11;15.80;99.90
1594;DHT22;790;47.000;16.084;2023-09-12T02:25:38;15.80;99.90
1594;DHT22;790;47.000;16.084;2023-09-12T02:28:05;15.80;99.90
1594;DHT22;790;47.000;16.084;2023-09-12T02:30:32;15.80;99.90
1594;DHT22;790;47.000;16.084;2023-09-12T02:32:59;15.70;99.90
1594;DHT22;790;47.000;16.084;2023-09-12T02:35:27;15.80;99.90
1594;DHT22;790;47.000;16.084;2023-09-12T02:37:56;15.80;99.90
1594;DHT22;790;47.000;16.084;2023-09-12T02:40:24;15.70;99.90
1594;DHT22;790;47.000;16.084;2023-09-12T02:42:52;15.70;99.90
1594;DHT22;790;47.000;16.084;2023-09-12T02:45:19;15.70;99.90
1594;DHT22;790;47.000;16.084;2023-09-12T02:47:46;15.70;99.90
1594;DHT22;790;47.000;16.084;2023-09-12T02:50:13;15.70;99.90
1594;DHT22;790;47.000;16.084;2023-09-12T02:52:40;15.70;99.90
1594;DHT22;790;47.000;16.084;2023-09-12T02:55:09;15.70;99.90
1594;DHT22;790;47.000;16.084;2023-09-12T02:57:36;15.70;99.90
1594;DHT22;790;47.000;16.084;2023-09-12T03:00:04;15.60;99.90
1594;DHT22;790;47.000;16.084;2023-09-12T03:02:33;15.60;99.90
1594;DHT22;790;47.000;16.084;2023-09-12T03:05:01;15.60;99.90
1594;DHT22;790;47.000;16.084;2023-09-12T03:07:29;15.50;99.90
1594;DHT22;790;47.000;16.084;2023-09-12T03:09:56;15.50;99.90
1594;DHT22;790;47.000;16.084;2023-09-12T03:12:25;15.40;99.90
1594;DHT22;790;47.000;16.084;2023-09-12T03:14:52;15.50;99.90
1594;DHT22;790;47.000;16.084;2023-09-12T03:17:19;15.50;99.90
1594;DHT22;790;47.000;16.084;2023-09-12T03:19:47;15.50;99.90
1594;DHT22;790;47.000;16.084;2023-09-12T03:22:14;15.50;99.90
1594;DHT22;790;47.000;16.084;2023-09-12T03:24:41;15.40;99.90
1594;DHT22;790;47.000;16.084;2023-09-12T03:27:08;15.50;99.90
1594;DHT22;790;47.000;16.084;2023-09-12T03:29:36;15.40;99.90
1594;DHT22;790;47.000;16.084;2023-09-12T03:32:04;15.40;99.90
1594;DHT22;790;47.000;16.084;2023-09-12T03:34:31;15.40;99.90
1594;DHT22;790;47.000;16.084;2023-09-12T03:36:58;15.40;99.90
1594;DHT22;790;47.000;16.084;2023-09-12T03:39:25;15.40;99.90
1594;DHT22;790;47.000;16.084;2023-09-12T03:41:52;15.30;99.90
1594;DHT22;790;47.000;16.084;2023-09-12T03:44:19;15.30;99.90
1594;DHT22;790;47.000;16.084;2023-09-12T03:46:47;15.30;99.90
1594;DHT22;790;47.000;16.084;2023-09-12T03:49:14;15.20;99.90
1594;DHT22;790;47.000;16.084;2023-09-12T03:51:41;15.20;99.90
1594;DHT22;790;47.000;16.084;2023-09-12T03:54:08;15.30;99.90
1594;DHT22;790;47.000;16.084;2023-09-12T03:56:35;15.30;99.90
1594;DHT22;790;47.000;16.084;2023-09-12T03:59:03;15.30;99.90
1594;DHT22;790;47.000;16.084;2023-09-12T04:01:29;15.30;99.90
1594;DHT22;790;47.000;16.084;2023-09-12T04:03:59;15.30;99.90
1594;DHT22;790;47.000;16.084;2023-09-12T04:06:26;15.20;99.90
1594;DHT22;790;47.000;16.084;2023-09-12T04:08:53;15.30;99.90
1594;DHT22;790;47.000;16.084;2023-09-12T04:11:20;15.30;99.90
1594;DHT22;790;47.000;16.084;2023-09-12T04:13:47;15.20;99.90
1594;DHT22;790;47.000;16.084;2023-09-12T04:16:14;15.20;99.90
1594;DHT22;790;47.000;16.084;2023-09-12T04:18:41;15.10;99.90
1594;DHT22;790;47.000;16.084;2023-09-12T04:21:10;15.10;99.90
1594;DHT22;790;47.000;16.084;2023-09-12T04:23:37;15.20;99.90
1594;DHT22;790;47.000;16.084;2023-09-12T04:26:04;15.20;99.90
1594;DHT22;790;47.000;16.084;2023-09-12T04:28:31;15.10;99.90
1594;DHT22;790;47.000;16.084;2023-09-12T04:31:02;15.10;99.90
1594;DHT22;790;47.000;16.084;2023-09-12T04:33:29;15.10;99.90
1594;DHT22;790;47.000;16.084;2023-09-12T04:35:58;15.00;99.90
1594;DHT22;790;47.000;16.084;2023-09-12T04:38:27;15.00;99.90
1594;DHT22;790;47.000;16.084;2023-09-12T04:40:55;15.10;99.90
1594;DHT22;790;47.000;16.084;2023-09-12T04:43:23;15.10;99.90
1594;DHT22;790;47.000;16.084;2023-09-12T04:45:50;15.10;99.90
1594;DHT22;790;47.000;16.084;2023-09-12T04:48:17;15.10;99.90
1594;DHT22;790;47.000;16.084;2023-09-12T04:50:44;15.00;99.90
1594;DHT22;790;47.000;16.084;2023-09-12T04:53:11;15.00;99.90
1594;DHT22;790;47.000;16.084;2023-09-12T04:55:40;15.10;99.90
1594;DHT22;790;47.000;16.084;2023-09-12T04:58:07;15.10;99.90
1594;DHT22;790;47.000;16.084;2023-09-12T05:00:34;15.10;99.90
1594;DHT22;790;47.000;16.084;2023-09-12T05:03:02;15.20;99.90
1594;DHT22;790;47.000;16.084;2023-09-12T05:05:29;15.30;99.90
1594;DHT22;790;47.000;16.084;2023-09-12T05:07:56;15.30;99.90
1594;DHT22;790;47.000;16.084;2023-09-12T05:10:24;15.30;99.90
1594;DHT22;790;47.000;16.084;2023-09-12T05:12:53;15.30;99.90
1594;DHT22;790;47.000;16.084;2023-09-12T05:15:20;15.30;99.90
1594;DHT22;790;47.000;16.084;2023-09-12T05:17:47;15.40;99.90
1594;DHT22;790;47.000;16.084;2023-09-12T05:20:14;15.40;99.90
1594;DHT22;790;47.000;16.084;2023-09-12T05:22:41;15.40;99.90
1594;DHT22;790;47.000;16.084;2023-09-12T05:25:08;15.40;99.90
1594;DHT22;790;47.000;16.084;2023-09-12T05:27:35;15.50;99.90
1594;DHT22;790;47.000;16.084;2023-09-12T05:30:06;15.50;99.90
1594;DHT22;790;47.000;16.084;2023-09-12T05:32:33;15.40;99.90
1594;DHT22;790;47.000;16.084;2023-09-12T05:35:02;15.40;99.90
1594;DHT22;790;47.000;16.084;2023-09-12T05:37:29;15.50;99.90
1594;DHT22;790;47.000;16.084;2023-09-12T05:39:56;15.50;99.90
1594;DHT22;790;47.000;16.084;2023-09-12T05:42:23;15.60;99.90
1594;DHT22;790;47.000;16.084;2023-09-12T05:44:51;15.60;99.90
1594;DHT22;790;47.000;16.084;2023-09-12T05:47:20;15.70;99.90
1594;DHT22;790;47.000;16.084;2023-09-12T05:49:47;15.70;99.90
1594;DHT22;790;47.000;16.084;2023-09-12T05:52:14;15.70;99.90
1594;DHT22;790;47.000;16.084;2023-09-12T05:54:42;15.70;99.90
1594;DHT22;790;47.000;16.084;2023-09-12T05:57:10;15.80;99.90
1594;DHT22;790;47.000;16.084;2023-09-12T05:59:38;15.80;99.90
1594;DHT22;790;47.000;16.084;2023-09-12T06:02:05;15.80;99.90
1594;DHT22;790;47.000;16.084;2023-09-12T06:04:36;15.90;99.90
1594;DHT22;790;47.000;16.084;2023-09-12T06:07:04;15.90;99.90
1594;DHT22;790;47.000;16.084;2023-09-12T06:09:31;16.00;99.90
1594;DHT22;790;47.000;16.084;2023-09-12T06:11:58;16.00;99.90
1594;DHT22;790;47.000;16.084;2023-09-12T06:14:25;16.10;99.90
1594;DHT22;790;47.000;16.084;2023-09-12T06:16:52;16.10;99.90
1594;DHT22;790;47.000;16.084;2023-09-12T06:19:19;16.20;99.90
1594;DHT22;790;47.000;16.084;2023-09-12T06:21:48;16.10;99.90
1594;DHT22;790;47.000;16.084;2023-09-12T06:24:16;16.20;99.90
1594;DHT22;790;47.000;16.084;2023-09-12T06:26:44;16.40;99.90
1594;DHT22;790;47.000;16.084;2023-09-12T06:29:11;16.50;99.90
1594;DHT22;790;47.000;16.084;2023-09-12T06:31:39;16.60;99.90
1594;DHT22;790;47.000;16.084;2023-09-12T06:34:06;16.60;99.90
1594;DHT22;790;47.000;16.084;2023-09-12T06:36:33;16.70;99.90
1594;DHT22;790;47.000;16.084;2023-09-12T06:39:02;16.80;99.90
1594;DHT22;790;47.000;16.084;2023-09-12T06:41:30;16.80;99.90
1594;DHT22;790;47.000;16.084;2023-09-12T06:43:57;16.90;99.90
1594;DHT22;790;47.000;16.084;2023-09-12T06:46:26;16.90;99.90
1594;DHT22;790;47.000;16.084;2023-09-12T06:48:53;17.00;99.90
1594;DHT22;790;47.000;16.084;2023-09-12T06:51:23;17.20;99.90
1594;DHT22;790;47.000;16.084;2023-09-12T06:53:50;17.30;99.90
1594;DHT22;790;47.000;16.084;2023-09-12T06:56:19;17.40;99.90
1594;DHT22;790;47.000;16.084;2023-09-12T06:58:47;17.60;99.90
1594;DHT22;790;47.000;16.084;2023-09-12T07:01:14;17.70;99.90
1594;DHT22;790;47.000;16.084;2023-09-12T07:03:41;17.70;99.90
1594;DHT22;790;47.000;16.084;2023-09-12T07:06:08;17.80;99.90
1594;DHT22;790;47.000;16.084;2023-09-12T07:08:35;17.90;99.90
1594;DHT22;790;47.000;16.084;2023-09-12T07:11:04;18.00;99.90
1594;DHT22;790;47.000;16.084;2023-09-12T07:13:33;18.10;99.90
1594;DHT22;790;47.000;16.084;2023-09-12T07:16:00;18.20;99.90
1594;DHT22;790;47.000;16.084;2023-09-12T07:18:30;18.30;99.90
1594;DHT22;790;47.000;16.084;2023-09-12T07:20:58;18.30;99.90
1594;DHT22;790;47.000;16.084;2023-09-12T07:23:25;18.40;99.90
1594;DHT22;790;47.000;16.084;2023-09-12T07:25:53;18.50;99.90
1594;DHT22;790;47.000;16.084;2023-09-12T07:28:21;18.70;99.90
1594;DHT22;790;47.000;16.084;2023-09-12T07:30:49;18.80;99.90
1594;DHT22;790;47.000;16.084;2023-09-12T07:33:16;18.90;99.90
1594;DHT22;790;47.000;16.084;2023-09-12T07:35:44;19.00;99.90
1594;DHT22;790;47.000;16.084;2023-09-12T07:38:12;19.10;99.90
1594;DHT22;790;47.000;16.084;2023-09-12T07:40:41;19.20;99.90
1594;DHT22;790;47.000;16.084;2023-09-12T07:43:09;19.30;99.90
1594;DHT22;790;47.000;16.084;2023-09-12T07:45:36;19.50;99.90
1594;DHT22;790;47.000;16.084;2023-09-12T07:48:06;19.70;99.90
1594;DHT22;790;47.000;16.084;2023-09-12T07:50:34;19.70;99.90
1594;DHT22;790;47.000;16.084;2023-09-12T07:53:04;19.90;99.90
1594;DHT22;790;47.000;16.084;2023-09-12T07:55:31;20.00;99.90
1594;DHT22;790;47.000;16.084;2023-09-12T07:58:01;20.10;99.90
1594;DHT22;790;47.000;16.084;2023-09-12T08:00:29;20.30;99.90
1594;DHT22;790;47.000;16.084;2023-09-12T08:02:56;20.40;99.90
1594;DHT22;790;47.000;16.084;2023-09-12T08:05:24;20.60;99.90
1594;DHT22;790;47.000;16.084;2023-09-12T08:07:51;20.70;99.90
1594;DHT22;790;47.000;16.084;2023-09-12T08:10:19;20.80;99.90
1594;DHT22;790;47.000;16.084;2023-09-12T08:12:46;20.90;99.90
1594;DHT22;790;47.000;16.084;2023-09-12T08:15:13;21.10;99.90
1594;DHT22;790;47.000;16.084;2023-09-12T08:17:40;21.20;99.90
1594;DHT22;790;47.000;16.084;2023-09-12T08:20:08;21.30;99.90
1594;DHT22;790;47.000;16.084;2023-09-12T08:22:38;21.40;99.90
1594;DHT22;790;47.000;16.084;2023-09-12T08:25:06;21.60;99.90
1594;DHT22;790;47.000;16.084;2023-09-12T08:27:33;21.70;99.90
1594;DHT22;790;47.000;16.084;2023-09-12T08:30:00;21.80;99.90
1594;DHT22;790;47.000;16.084;2023-09-12T08:32:29;21.90;99.90
1594;DHT22;790;47.000;16.084;2023-09-12T08:34:57;22.00;99.90
1594;DHT22;790;47.000;16.084;2023-09-12T08:37:24;22.20;99.90
1594;DHT22;790;47.000;16.084;2023-09-12T08:39:54;22.30;99.90
1594;DHT22;790;47.000;16.084;2023-09-12T08:42:23;22.50;99.90
1594;DHT22;790;47.000;16.084;2023-09-12T08:44:53;22.50;99.90
1594;DHT22;790;47.000;16.084;2023-09-12T08:47:22;22.70;99.90
1594;DHT22;790;47.000;16.084;2023-09-12T08:49:49;22.80;99.90
1594;DHT22;790;47.000;16.084;2023-09-12T08:52:16;22.80;99.90
1594;DHT22;790;47.000;16.084;2023-09-12T08:54:44;23.00;99.90
1594;DHT22;790;47.000;16.084;2023-09-12T08:57:12;23.10;99.90
1594;DHT22;790;47.000;16.084;2023-09-12T08:59:40;23.20;99.90
1594;DHT22;790;47.000;16.084;2023-09-12T09:02:09;23.40;99.90
1594;DHT22;790;47.000;16.084;2023-09-12T09:04:38;23.50;99.90
1594;DHT22;790;47.000;16.084;2023-09-12T09:07:06;23.60;99.90
1594;DHT22;790;47.000;16.084;2023-09-12T09:09:34;23.70;99.90
1594;DHT22;790;47.000;16.084;2023-09-12T09:12:02;23.80;99.90
1594;DHT22;790;47.000;16.084;2023-09-12T09:14:34;24.00;99.90
1594;DHT22;790;47.000;16.084;2023-09-12T09:17:02;24.20;99.90
1594;DHT22;790;47.000;16.084;2023-09-12T09:19:40;24.30;99.90
1594;DHT22;790;47.000;16.084;2023-09-12T09:22:08;24.40;99.90
1594;DHT22;790;47.000;16.084;2023-09-12T09:24:35;24.50;99.90
1594;DHT22;790;47.000;16.084;2023-09-12T09:27:03;24.60;99.90
1594;DHT22;790;47.000;16.084;2023-09-12T09:29:30;24.80;99.90
1594;DHT22;790;47.000;16.084;2023-09-12T09:32:00;24.90;99.90
1594;DHT22;790;47.000;16.084;2023-09-12T09:34:30;25.00;99.90
1594;DHT22;790;47.000;16.084;2023-09-12T09:36:58;25.00;99.90
1594;DHT22;790;47.000;16.084;2023-09-12T09:39:26;25.10;99.90
1594;DHT22;790;47.000;16.084;2023-09-12T09:41:55;25.20;99.90
1594;DHT22;790;47.000;16.084;2023-09-12T09:44:25;25.30;99.90
1594;DHT22;790;47.000;16.084;2023-09-12T09:46:55;25.40;99.90
1594;DHT22;790;47.000;16.084;2023-09-12T09:49:24;25.40;99.90
1594;DHT22;790;47.000;16.084;2023-09-12T09:51:51;25.40;99.90
1594;DHT22;790;47.000;16.084;2023-09-12T09:54:24;25.60;99.90
1594;DHT22;790;47.000;16.084;2023-09-12T09:56:53;25.70;99.90
1594;DHT22;790;47.000;16.084;2023-09-12T09:59:21;25.70;99.90
1594;DHT22;790;47.000;16.084;2023-09-12T10:01:50;25.90;99.90
1594;DHT22;790;47.000;16.084;2023-09-12T10:04:21;26.00;99.90
1594;DHT22;790;47.000;16.084;2023-09-12T10:06:51;26.10;99.90
1594;DHT22;790;47.000;16.084;2023-09-12T10:09:22;26.10;99.90
1594;DHT22;790;47.000;16.084;2023-09-12T10:11:52;26.20;99.90
1594;DHT22;790;47.000;16.084;2023-09-12T10:14:22;26.20;99.90
1594;DHT22;790;47.000;16.084;2023-09-12T10:16:51;26.30;99.90
1594;DHT22;790;47.000;16.084;2023-09-12T10:19:26;26.30;99.90
1594;DHT22;790;47.000;16.084;2023-09-12T10:22:01;26.40;99.90
1594;DHT22;790;47.000;16.084;2023-09-12T10:24:31;26.50;99.90
1594;DHT22;790;47.000;16.084;2023-09-12T10:27:00;26.50;99.90
1594;DHT22;790;47.000;16.084;2023-09-12T10:29:29;26.60;99.90
1594;DHT22;790;47.000;16.084;2023-09-12T10:31:56;26.70;99.90
1594;DHT22;790;47.000;16.084;2023-09-12T10:34:25;26.70;99.90
1594;DHT22;790;47.000;16.084;2023-09-12T10:36:52;26.80;99.90
1594;DHT22;790;47.000;16.084;2023-09-12T10:39:24;26.90;99.90
1594;DHT22;790;47.000;16.084;2023-09-12T10:41:54;26.90;99.90
1594;DHT22;790;47.000;16.084;2023-09-12T10:44:21;26.90;99.90
1594;DHT22;790;47.000;16.084;2023-09-12T10:46:50;27.00;99.90
1594;DHT22;790;47.000;16.084;2023-09-12T10:49:19;27.10;99.90
1594;DHT22;790;47.000;16.084;2023-09-12T10:51:47;27.20;99.90
1594;DHT22;790;47.000;16.084;2023-09-12T10:54:24;27.30;99.90
1594;DHT22;790;47.000;16.084;2023-09-12T10:57:08;27.40;99.90
1594;DHT22;790;47.000;16.084;2023-09-12T10:59:37;27.40;99.90
1594;DHT22;790;47.000;16.084;2023-09-12T11:02:28;27.50;99.90
1594;DHT22;790;47.000;16.084;2023-09-12T11:04:57;27.50;99.90
1594;DHT22;790;47.000;16.084;2023-09-12T11:07:32;27.50;99.90
1594;DHT22;790;47.000;16.084;2023-09-12T11:10:21;27.60;99.90
1594;DHT22;790;47.000;16.084;2023-09-12T11:12:49;27.50;99.90
1594;DHT22;790;47.000;16.084;2023-09-12T11:15:17;27.60;99.90
1594;DHT22;790;47.000;16.084;2023-09-12T11:17:45;27.70;99.90
1594;DHT22;790;47.000;16.084;2023-09-12T11:20:13;27.80;99.90
1594;DHT22;790;47.000;16.084;2023-09-12T11:22:42;27.90;99.90
1594;DHT22;790;47.000;16.084;2023-09-12T11:25:21;27.90;99.90
1594;DHT22;790;47.000;16.084;2023-09-12T11:28:05;27.90;99.90
1594;DHT22;790;47.000;16.084;2023-09-12T11:30:32;28.00;99.90
1594;DHT22;790;47.000;16.084;2023-09-12T11:33:04;28.00;99.90
1594;DHT22;790;47.000;16.084;2023-09-12T11:35:36;28.00;99.90
1594;DHT22;790;47.000;16.084;2023-09-12T11:38:03;28.00;99.90
1594;DHT22;790;47.000;16.084;2023-09-12T11:40:43;28.00;99.90
1594;DHT22;790;47.000;16.084;2023-09-12T11:43:20;28.00;99.90
1594;DHT22;790;47.000;16.084;2023-09-12T11:45:47;28.10;99.90
1594;DHT22;790;47.000;16.084;2023-09-12T11:48:15;28.20;99.90
1594;DHT22;790;47.000;16.084;2023-09-12T11:50:42;28.20;99.90
1594;DHT22;790;47.000;16.084;2023-09-12T11:53:10;28.30;99.90
1594;DHT22;790;47.000;16.084;2023-09-12T11:55:44;28.30;99.90
1594;DHT22;790;47.000;16.084;2023-09-12T11:58:13;28.30;99.90
1594;DHT22;790;47.000;16.084;2023-09-12T12:00:43;28.40;99.90
1594;DHT22;790;47.000;16.084;2023-09-12T12:03:11;28.40;99.90
1594;DHT22;790;47.000;16.084;2023-09-12T12:05:39;28.40;99.90
1594;DHT22;790;47.000;16.084;2023-09-12T12:08:07;28.40;99.90
1594;DHT22;790;47.000;16.084;2023-09-12T12:10:34;28.40;99.90
1594;DHT22;790;47.000;16.084;2023-09-12T12:13:03;28.30;99.90
1594;DHT22;790;47.000;16.084;2023-09-12T12:15:30;28.30;99.90
1594;DHT22;790;47.000;16.084;2023-09-12T12:17:58;28.30;99.90
1594;DHT22;790;47.000;16.084;2023-09-12T12:20:25;28.40;99.90
1594;DHT22;790;47.000;16.084;2023-09-12T12:22:53;28.50;99.90
1594;DHT22;790;47.000;16.084;2023-09-12T12:25:20;28.60;99.90
1594;DHT22;790;47.000;16.084;2023-09-12T12:27:48;28.60;99.90
1594;DHT22;790;47.000;16.084;2023-09-12T12:30:18;28.70;99.90
1594;DHT22;790;47.000;16.084;2023-09-12T12:32:46;28.70;99.90
1594;DHT22;790;47.000;16.084;2023-09-12T12:35:18;28.70;99.90
1594;DHT22;790;47.000;16.084;2023-09-12T12:37:45;28.60;99.90
1594;DHT22;790;47.000;16.084;2023-09-12T12:40:14;28.60;99.90
1594;DHT22;790;47.000;16.084;2023-09-12T12:42:43;28.70;99.90
1594;DHT22;790;47.000;16.084;2023-09-12T12:45:12;28.70;99.90
1594;DHT22;790;47.000;16.084;2023-09-12T12:47:41;28.80;99.90
1594;DHT22;790;47.000;16.084;2023-09-12T12:50:10;28.80;99.90
1594;DHT22;790;47.000;16.084;2023-09-12T12:52:38;28.80;99.90
1594;DHT22;790;47.000;16.084;2023-09-12T12:55:06;28.80;99.90
1594;DHT22;790;47.000;16.084;2023-09-12T12:57:36;28.80;99.90
1594;DHT22;790;47.000;16.084;2023-09-12T13:00:06;28.80;99.90
1594;DHT22;790;47.000;16.084;2023-09-12T13:02:36;28.80;99.90
1594;DHT22;790;47.000;16.084;2023-09-12T13:05:20;28.80;99.90
1594;DHT22;790;47.000;16.084;2023-09-12T13:07:47;28.80;99.90
1594;DHT22;790;47.000;16.084;2023-09-12T13:10:16;28.80;99.90
1594;DHT22;790;47.000;16.084;2023-09-12T13:12:43;28.80;99.90
1594;DHT22;790;47.000;16.084;2023-09-12T13:15:13;28.80;99.90
1594;DHT22;790;47.000;16.084;2023-09-12T13:17:41;28.90;99.90
1594;DHT22;790;47.000;16.084;2023-09-12T13:20:10;28.90;99.90
1594;DHT22;790;47.000;16.084;2023-09-12T13:22:38;29.00;99.90
1594;DHT22;790;47.000;16.084;2023-09-12T13:25:06;28.90;99.90
1594;DHT22;790;47.000;16.084;2023-09-12T13:27:34;28.90;99.90
1594;DHT22;790;47.000;16.084;2023-09-12T13:30:02;28.90;99.90
1594;DHT22;790;47.000;16.084;2023-09-12T13:32:30;28.90;99.90
1594;DHT22;790;47.000;16.084;2023-09-12T13:34:58;28.90;99.90
1594;DHT22;790;47.000;16.084;2023-09-12T13:37:31;28.90;99.90
1594;DHT22;790;47.000;16.084;2023-09-12T13:39:58;28.80;99.90
1594;DHT22;790;47.000;16.084;2023-09-12T13:42:25;28.80;99.90
1594;DHT22;790;47.000;16.084;2023-09-12T13:44:56;28.80;99.90
1594;DHT22;790;47.000;16.084;2023-09-12T13:47:23;28.80;99.90
1594;DHT22;790;47.000;16.084;2023-09-12T13:49:51;28.90;99.90
1594;DHT22;790;47.000;16.084;2023-09-12T13:52:19;29.00;99.90
1594;DHT22;790;47.000;16.084;2023-09-12T13:54:48;28.90;99.90
1594;DHT22;790;47.000;16.084;2023-09-12T13:57:16;28.90;99.90
1594;DHT22;790;47.000;16.084;2023-09-12T13:59:43;28.80;99.90
1594;DHT22;790;47.000;16.084;2023-09-12T14:02:10;28.80;99.90
1594;DHT22;790;47.000;16.084;2023-09-12T14:04:37;28.90;99.90
1594;DHT22;790;47.000;16.084;2023-09-12T14:07:05;28.90;99.90
1594;DHT22;790;47.000;16.084;2023-09-12T14:09:32;28.90;99.90
1594;DHT22;790;47.000;16.084;2023-09-12T14:12:01;28.90;99.90
1594;DHT22;790;47.000;16.084;2023-09-12T14:14:28;28.90;99.90
1594;DHT22;790;47.000;16.084;2023-09-12T14:16:55;28.90;99.90
1594;DHT22;790;47.000;16.084;2023-09-12T14:19:22;28.70;99.90
1594;DHT22;790;47.000;16.084;2023-09-12T14:21:49;28.70;99.90
1594;DHT22;790;47.000;16.084;2023-09-12T14:24:16;28.70;99.90
1594;DHT22;790;47.000;16.084;2023-09-12T14:26:43;28.70;99.90
1594;DHT22;790;47.000;16.084;2023-09-12T14:29:12;28.70;99.90
1594;DHT22;790;47.000;16.084;2023-09-12T14:31:39;28.60;99.90
1594;DHT22;790;47.000;16.084;2023-09-12T14:34:15;28.50;99.90
1594;DHT22;790;47.000;16.084;2023-09-12T14:36:42;28.50;99.90
1594;DHT22;790;47.000;16.084;2023-09-12T14:39:11;28.50;99.90
1594;DHT22;790;47.000;16.084;2023-09-12T14:41:39;28.50;99.90
1594;DHT22;790;47.000;16.084;2023-09-12T14:44:06;28.40;99.90
1594;DHT22;790;47.000;16.084;2023-09-12T14:46:34;28.30;99.90
1594;DHT22;790;47.000;16.084;2023-09-12T14:49:02;28.30;99.90
1594;DHT22;790;47.000;16.084;2023-09-12T14:51:29;28.30;99.90
1594;DHT22;790;47.000;16.084;2023-09-12T14:53:56;28.30;99.90
1594;DHT22;790;47.000;16.084;2023-09-12T14:56:23;28.30;99.90
1594;DHT22;790;47.000;16.084;2023-09-12T14:58:50;28.20;99.90
1594;DHT22;790;47.000;16.084;2023-09-12T15:01:17;28.20;99.90
1594;DHT22;790;47.000;16.084;2023-09-12T15:03:46;28.10;99.90
1594;DHT22;790;47.000;16.084;2023-09-12T15:06:13;28.10;99.90
1594;DHT22;790;47.000;16.084;2023-09-12T15:08:40;28.00;99.90
1594;DHT22;790;47.000;16.084;2023-09-12T15:11:07;28.00;99.90
1594;DHT22;790;47.000;16.084;2023-09-12T15:13:34;28.00;99.90
1594;DHT22;790;47.000;16.084;2023-09-12T15:16:02;27.90;99.90
1594;DHT22;790;47.000;16.084;2023-09-12T15:18:29;27.80;99.90
1594;DHT22;790;47.000;16.084;2023-09-12T15:20:58;27.80;99.90
1594;DHT22;790;47.000;16.084;2023-09-12T15:23:25;27.80;99.90
1594;DHT22;790;47.000;16.084;2023-09-12T15:25:54;27.70;99.90
1594;DHT22;790;47.000;16.084;2023-09-12T15:28:21;27.70;99.90
1594;DHT22;790;47.000;16.084;2023-09-12T15:30:48;27.60;99.90
1594;DHT22;790;47.000;16.084;2023-09-12T15:33:15;27.50;99.90
1594;DHT22;790;47.000;16.084;2023-09-12T15:35:48;27.40;99.90
1594;DHT22;790;47.000;16.084;2023-09-12T15:38:19;27.50;99.90
1594;DHT22;790;47.000;16.084;2023-09-12T15:40:46;27.40;99.90
1594;DHT22;790;47.000;16.084;2023-09-12T15:43:15;27.30;99.90
1594;DHT22;790;47.000;16.084;2023-09-12T15:45:43;27.20;99.90
1594;DHT22;790;47.000;16.084;2023-09-12T15:48:10;27.10;99.90
1594;DHT22;790;47.000;16.084;2023-09-12T15:50:37;27.00;99.90
1594;DHT22;790;47.000;16.084;2023-09-12T15:53:04;26.80;99.90
1594;DHT22;790;47.000;16.084;2023-09-12T15:55:32;26.70;99.90
1594;DHT22;790;47.000;16.084;2023-09-12T15:57:59;26.60;99.90
1594;DHT22;790;47.000;16.084;2023-09-12T16:00:26;26.50;99.90
1594;DHT22;790;47.000;16.084;2023-09-12T16:02:53;26.40;99.90
1594;DHT22;790;47.000;16.084;2023-09-12T16:05:21;26.30;99.90
1594;DHT22;790;47.000;16.084;2023-09-12T16:07:48;26.10;99.90
1594;DHT22;790;47.000;16.084;2023-09-12T16:10:15;25.80;99.90
1594;DHT22;790;47.000;16.084;2023-09-12T16:12:44;25.70;99.90
1594;DHT22;790;47.000;16.084;2023-09-12T16:15:11;25.50;99.90